sensor_id;sensor_type;location;lat;lon;timestamp;temperature;humidity
11474;DHT22;5793;52.238;13.438;2023-03-23T00:01:46;10.90;99.90
11474;DHT22;5793;52.238;13.438;2023-03-23T00:04:15;10.80;99.90
11474;DHT22;5793;52.238;13.438;2023-03-23T00:06:42;10.70;99.90
11474;DHT22;5793;52.238;13.438;2023-03-23T00:09:13;10.70;99.90
11474;DHT22;5793;52.238;13.438;2023-03-23T00:11:41;10.60;99.90
11474;DHT22;5793;52.238;13.438;2023-03-23T00:14:09;10.60;99.90
11474;DHT22;5793;52.238;13.438;2023-03-23T00:16:40;10.50;99.90
11474;DHT22;5793;52.238;13.438;2023-03-23T00:19:11;10.50;99.90
11474;DHT22;5793;52.238;13.438;2023-03-23T00:21:39;10.50;99.90
11474;DHT22;5793;52.238;13.438;2023-03-23T00:24:09;10.40;99.90
11474;DHT22;5793;52.238;13.438;2023-03-23T00:26:39;10.40;99.90
11474;DHT22;5793;52.238;13.438;2023-03-23T00:29:08;10.40;99.90
11474;DHT22;5793;52.238;13.438;2023-03-23T00:31:39;10.40;99.90
11474;DHT22;5793;52.238;13.438;2023-03-23T00:34:06;10.30;99.90
11474;DHT22;5793;52.238;13.438;2023-03-23T00:36:34;10.30;99.90
11474;DHT22;5793;52.238;13.438;2023-03-23T00:39:08;10.20;99.90
11474;DHT22;5793;52.238;13.438;2023-03-23T00:41:36;10.20;99.90
11474;DHT22;5793;52.238;13.438;2023-03-23T00:44:04;10.20;99.90
11474;DHT22;5793;52.238;13.438;2023-03-23T00:46:30;10.20;99.90
11474;DHT22;5793;52.238;13.438;2023-03-23T00:48:57;10.20;99.90
11474;DHT22;5793;52.238;13.438;2023-03-23T00:51:24;10.20;99.90
11474;DHT22;5793;52.238;13.438;2023-03-23T00:53:51;10.30;99.90
11474;DHT22;5793;52.238;13.438;2023-03-23T00:56:17;10.30;99.90
11474;DHT22;5793;52.238;13.438;2023-03-23T00:58:45;10.20;99.90
11474;DHT22;5793;52.238;13.438;2023-03-23T01:01:12;10.20;99.90
11474;DHT22;5793;52.238;13.438;2023-03-23T01:03:39;10.10;99.90
11474;DHT22;5793;52.238;13.438;2023-03-23T01:06:07;10.10;99.90
11474;DHT22;5793;52.238;13.438;2023-03-23T01:08:38;10.00;99.90
11474;DHT22;5793;52.238;13.438;2023-03-23T01:11:12;10.00;99.90
11474;DHT22;5793;52.238;13.438;2023-03-23T01:13:39;10.00;99.90
11474;DHT22;5793;52.238;13.438;2023-03-23T01:16:09;9.80;99.90
11474;DHT22;5793;52.238;13.438;2023-03-23T01:18:36;9.60;99.90
11474;DHT22;5793;52.238;13.438;2023-03-23T01:21:05;9.40;99.90
11474;DHT22;5793;52.238;13.438;2023-03-23T01:23:32;9.30;99.90
11474;DHT22;5793;52.238;13.438;2023-03-23T01:26:03;9.20;99.90
11474;DHT22;5793;52.238;13.438;2023-03-23T01:28:29;9.20;99.90
11474;DHT22;5793;52.238;13.438;2023-03-23T01:30:59;9.10;99.90
11474;DHT22;5793;52.238;13.438;2023-03-23T01:33:28;9.00;99.90
11474;DHT22;5793;52.238;13.438;2023-03-23T01:35:54;9.10;99.90
11474;DHT22;5793;52.238;13.438;2023-03-23T01:38:21;9.10;99.90
11474;DHT22;5793;52.238;13.438;2023-03-23T01:40:48;9.00;99.90
11474;DHT22;5793;52.238;13.438;2023-03-23T01:43:15;9.00;99.90
11474;DHT22;5793;52.238;13.438;2023-03-23T01:45:42;9.00;99.90
11474;DHT22;5793;52.238;13.438;2023-03-23T01:48:13;8.90;99.90
11474;DHT22;5793;52.238;13.438;2023-03-23T01:50:50;8.80;99.90
11474;DHT22;5793;52.238;13.438;2023-03-23T01:53:18;8.80;99.90
11474;DHT22;5793;52.238;13.438;2023-03-23T01:55:46;8.80;99.90
11474;DHT22;5793;52.238;13.438;2023-03-23T01:58:17;8.80;99.90
11474;DHT22;5793;52.238;13.438;2023-03-23T02:00:46;8.70;99.90
11474;DHT22;5793;52.238;13.438;2023-03-23T02:03:14;8.70;99.90
11474;DHT22;5793;52.238;13.438;2023-03-23T02:05:44;8.70;99.90
11474;DHT22;5793;52.238;13.438;2023-03-23T02:08:12;8.70;99.90
11474;DHT22;5793;52.238;13.438;2023-03-23T02:10:41;8.80;99.90
11474;DHT22;5793;52.238;13.438;2023-03-23T02:13:09;8.80;99.90
11474;DHT22;5793;52.238;13.438;2023-03-23T02:15:53;8.80;99.90
11474;DHT22;5793;52.238;13.438;2023-03-23T02:18:37;8.80;99.90
11474;DHT22;5793;52.238;13.438;2023-03-23T02:21:38;8.80;99.90
11474;DHT22;5793;52.238;13.438;2023-03-23T02:24:29;8.80;99.90
11474;DHT22;5793;52.238;13.438;2023-03-23T02:26:59;8.80;99.90
11474;DHT22;5793;52.238;13.438;2023-03-23T02:29:51;8.90;99.90
11474;DHT22;5793;52.238;13.438;2023-03-23T02:32:39;8.90;99.90
11474;DHT22;5793;52.238;13.438;2023-03-23T02:35:12;9.00;99.90
11474;DHT22;5793;52.238;13.438;2023-03-23T02:37:46;9.30;99.90
11474;DHT22;5793;52.238;13.438;2023-03-23T02:40:17;9.50;99.90
11474;DHT22;5793;52.238;13.438;2023-03-23T02:42:49;9.70;99.90
11474;DHT22;5793;52.238;13.438;2023-03-23T02:45:17;9.90;99.90
11474;DHT22;5793;52.238;13.438;2023-03-23T02:47:46;10.00;99.90
11474;DHT22;5793;52.238;13.438;2023-03-23T02:50:16;10.10;99.90
11474;DHT22;5793;52.238;13.438;2023-03-23T02:55:15;10.40;99.90
11474;DHT22;5793;52.238;13.438;2023-03-23T02:57:43;10.50;99.90
11474;DHT22;5793;52.238;13.438;2023-03-23T03:00:14;10.60;99.90
11474;DHT22;5793;52.238;13.438;2023-03-23T03:02:43;10.70;99.90
11474;DHT22;5793;52.238;13.438;2023-03-23T03:05:22;10.70;99.90
11474;DHT22;5793;52.238;13.438;2023-03-23T03:08:10;10.80;99.90
11474;DHT22;5793;52.238;13.438;2023-03-23T03:10:46;10.80;99.90
11474;DHT22;5793;52.238;13.438;2023-03-23T03:13:23;10.90;99.90
11474;DHT22;5793;52.238;13.438;2023-03-23T03:15:56;10.90;99.90
11474;DHT22;5793;52.238;13.438;2023-03-23T03:18:27;10.80;99.90
11474;DHT22;5793;52.238;13.438;2023-03-23T03:21:01;10.90;99.90
11474;DHT22;5793;52.238;13.438;2023-03-23T03:23:31;10.90;99.90
11474;DHT22;5793;52.238;13.438;2023-03-23T03:25:59;10.90;99.90
11474;DHT22;5793;52.238;13.438;2023-03-23T03:28:27;10.90;99.90
11474;DHT22;5793;52.238;13.438;2023-03-23T03:30:56;10.90;99.90
11474;DHT22;5793;52.238;13.438;2023-03-23T03:33:27;11.00;99.90
11474;DHT22;5793;52.238;13.438;2023-03-23T03:35:59;10.90;99.90
11474;DHT22;5793;52.238;13.438;2023-03-23T03:38:27;11.00;99.90
11474;DHT22;5793;52.238;13.438;2023-03-23T03:40:56;11.10;99.90
11474;DHT22;5793;52.238;13.438;2023-03-23T03:43:23;11.10;99.90
11474;DHT22;5793;52.238;13.438;2023-03-23T03:45:50;11.00;99.90
11474;DHT22;5793;52.238;13.438;2023-03-23T03:48:16;11.00;99.90
11474;DHT22;5793;52.238;13.438;2023-03-23T03:50:43;11.00;99.90
11474;DHT22;5793;52.238;13.438;2023-03-23T03:53:11;11.00;99.90
11474;DHT22;5793;52.238;13.438;2023-03-23T03:55:38;11.00;99.90
11474;DHT22;5793;52.238;13.438;2023-03-23T03:58:10;11.10;99.90
11474;DHT22;5793;52.238;13.438;2023-03-23T04:00:38;11.10;99.90
11474;DHT22;5793;52.238;13.438;2023-03-23T04:03:05;11.10;99.90
11474;DHT22;5793;52.238;13.438;2023-03-23T04:05:32;11.10;99.90
11474;DHT22;5793;52.238;13.438;2023-03-23T04:07:59;11.20;99.90
11474;DHT22;5793;52.238;13.438;2023-03-23T04:10:30;11.20;99.90
11474;DHT22;5793;52.238;13.438;2023-03-23T04:12:57;11.20;99.90
11474;DHT22;5793;52.238;13.438;2023-03-23T04:15:24;11.10;99.90
11474;DHT22;5793;52.238;13.438;2023-03-23T04:17:50;11.10;99.90
11474;DHT22;5793;52.238;13.438;2023-03-23T04:20:17;11.10;99.90
11474;DHT22;5793;52.238;13.438;2023-03-23T04:22:45;11.10;99.90
11474;DHT22;5793;52.238;13.438;2023-03-23T04:25:16;11.10;99.90
11474;DHT22;5793;52.238;13.438;2023-03-23T04:27:47;11.10;99.90
11474;DHT22;5793;52.238;13.438;2023-03-23T04:30:19;11.10;99.90
11474;DHT22;5793;52.238;13.438;2023-03-23T04:32:46;11.00;99.90
11474;DHT22;5793;52.238;13.438;2023-03-23T04:35:17;11.00;99.90
11474;DHT22;5793;52.238;13.438;2023-03-23T04:37:44;11.00;99.90
11474;DHT22;5793;52.238;13.438;2023-03-23T04:40:12;10.90;99.90
11474;DHT22;5793;52.238;13.438;2023-03-23T04:42:41;10.90;99.90
11474;DHT22;5793;52.238;13.438;2023-03-23T04:45:13;10.90;99.90
11474;DHT22;5793;52.238;13.438;2023-03-23T04:47:41;10.90;99.90
11474;DHT22;5793;52.238;13.438;2023-03-23T04:50:19;10.90;99.90
11474;DHT22;5793;52.238;13.438;2023-03-23T04:52:47;10.80;99.90
11474;DHT22;5793;52.238;13.438;2023-03-23T04:55:14;10.80;99.90
11474;DHT22;5793;52.238;13.438;2023-03-23T04:57:41;10.80;99.90
11474;DHT22;5793;52.238;13.438;2023-03-23T05:00:09;10.70;99.90
11474;DHT22;5793;52.238;13.438;2023-03-23T05:02:41;10.70;99.90
11474;DHT22;5793;52.238;13.438;2023-03-23T05:05:09;10.70;99.90
11474;DHT22;5793;52.238;13.438;2023-03-23T05:07:37;10.70;99.90
11474;DHT22;5793;52.238;13.438;2023-03-23T05:10:05;10.70;99.90
11474;DHT22;5793;52.238;13.438;2023-03-23T05:12:33;10.70;99.90
11474;DHT22;5793;52.238;13.438;2023-03-23T05:15:00;10.70;99.90
11474;DHT22;5793;52.238;13.438;2023-03-23T05:17:27;10.60;99.90
11474;DHT22;5793;52.238;13.438;2023-03-23T05:19:56;10.70;99.90
11474;DHT22;5793;52.238;13.438;2023-03-23T05:22:24;10.70;99.90
11474;DHT22;5793;52.238;13.438;2023-03-23T05:24:52;10.70;99.90
11474;DHT22;5793;52.238;13.438;2023-03-23T05:27:19;10.70;99.90
11474;DHT22;5793;52.238;13.438;2023-03-23T05:29:46;10.70;99.90
11474;DHT22;5793;52.238;13.438;2023-03-23T05:32:14;10.70;99.90
11474;DHT22;5793;52.238;13.438;2023-03-23T05:34:42;10.70;99.90
11474;DHT22;5793;52.238;13.438;2023-03-23T05:37:10;10.70;99.90
11474;DHT22;5793;52.238;13.438;2023-03-23T05:39:37;10.70;99.90
11474;DHT22;5793;52.238;13.438;2023-03-23T05:42:05;10.80;99.90
11474;DHT22;5793;52.238;13.438;2023-03-23T05:44:33;10.80;99.90
11474;DHT22;5793;52.238;13.438;2023-03-23T05:46:59;10.80;99.90
11474;DHT22;5793;52.238;13.438;2023-03-23T05:49:26;10.70;99.90
11474;DHT22;5793;52.238;13.438;2023-03-23T05:51:54;10.70;99.90
11474;DHT22;5793;52.238;13.438;2023-03-23T05:54:22;10.70;99.90
11474;DHT22;5793;52.238;13.438;2023-03-23T05:56:48;10.70;99.90
11474;DHT22;5793;52.238;13.438;2023-03-23T05:59:15;10.70;99.90
11474;DHT22;5793;52.238;13.438;2023-03-23T06:01:42;10.70;99.90
11474;DHT22;5793;52.238;13.438;2023-03-23T06:04:09;10.60;99.90
11474;DHT22;5793;52.238;13.438;2023-03-23T06:06:37;10.60;99.90
11474;DHT22;5793;52.238;13.438;2023-03-23T06:09:04;10.60;99.90
11474;DHT22;5793;52.238;13.438;2023-03-23T06:11:33;10.60;99.90
11474;DHT22;5793;52.238;13.438;2023-03-23T06:14:00;10.70;99.90
11474;DHT22;5793;52.238;13.438;2023-03-23T06:16:27;10.70;99.90
11474;DHT22;5793;52.238;13.438;2023-03-23T06:18:54;10.80;99.90
11474;DHT22;5793;52.238;13.438;2023-03-23T06:21:22;10.90;99.90
11474;DHT22;5793;52.238;13.438;2023-03-23T06:23:48;11.10;99.90
11474;DHT22;5793;52.238;13.438;2023-03-23T06:26:18;11.10;99.90
11474;DHT22;5793;52.238;13.438;2023-03-23T06:28:47;11.20;99.90
11474;DHT22;5793;52.238;13.438;2023-03-23T06:31:14;11.10;99.90
11474;DHT22;5793;52.238;13.438;2023-03-23T06:33:42;11.10;99.90
11474;DHT22;5793;52.238;13.438;2023-03-23T06:36:09;10.90;99.90
11474;DHT22;5793;52.238;13.438;2023-03-23T06:38:37;10.90;99.90
11474;DHT22;5793;52.238;13.438;2023-03-23T06:41:04;10.80;99.90
11474;DHT22;5793;52.238;13.438;2023-03-23T06:43:31;10.80;99.90
11474;DHT22;5793;52.238;13.438;2023-03-23T06:46:00;10.80;99.90
11474;DHT22;5793;52.238;13.438;2023-03-23T06:48:27;10.80;99.90
11474;DHT22;5793;52.238;13.438;2023-03-23T06:50:53;10.70;99.90
11474;DHT22;5793;52.238;13.438;2023-03-23T06:53:20;10.70;99.90
11474;DHT22;5793;52.238;13.438;2023-03-23T06:55:47;10.70;99.90
11474;DHT22;5793;52.238;13.438;2023-03-23T06:58:13;10.60;99.90
11474;DHT22;5793;52.238;13.438;2023-03-23T07:00:40;10.60;99.90
11474;DHT22;5793;52.238;13.438;2023-03-23T07:03:08;10.70;99.90
11474;DHT22;5793;52.238;13.438;2023-03-23T07:05:35;10.80;99.90
11474;DHT22;5793;52.238;13.438;2023-03-23T07:08:02;10.90;99.90
11474;DHT22;5793;52.238;13.438;2023-03-23T07:10:29;11.00;99.90
11474;DHT22;5793;52.238;13.438;2023-03-23T07:12:57;11.00;99.90
11474;DHT22;5793;52.238;13.438;2023-03-23T07:15:24;11.10;99.90
11474;DHT22;5793;52.238;13.438;2023-03-23T07:17:52;11.10;99.90
11474;DHT22;5793;52.238;13.438;2023-03-23T07:20:21;11.10;99.90
11474;DHT22;5793;52.238;13.438;2023-03-23T07:22:48;10.90;99.90
11474;DHT22;5793;52.238;13.438;2023-03-23T07:25:15;10.90;99.90
11474;DHT22;5793;52.238;13.438;2023-03-23T07:27:41;10.90;99.90
11474;DHT22;5793;52.238;13.438;2023-03-23T07:30:10;10.90;99.90
11474;DHT22;5793;52.238;13.438;2023-03-23T07:32:37;11.00;99.90
11474;DHT22;5793;52.238;13.438;2023-03-23T07:35:04;11.10;99.90
11474;DHT22;5793;52.238;13.438;2023-03-23T07:37:33;11.10;99.90
11474;DHT22;5793;52.238;13.438;2023-03-23T07:40:01;11.20;99.90
11474;DHT22;5793;52.238;13.438;2023-03-23T07:42:34;11.20;99.90
11474;DHT22;5793;52.238;13.438;2023-03-23T07:45:00;11.20;99.90
11474;DHT22;5793;52.238;13.438;2023-03-23T07:47:27;11.20;99.90
11474;DHT22;5793;52.238;13.438;2023-03-23T07:49:54;11.30;99.90
11474;DHT22;5793;52.238;13.438;2023-03-23T07:52:21;11.40;99.90
11474;DHT22;5793;52.238;13.438;2023-03-23T07:54:50;11.60;99.90
11474;DHT22;5793;52.238;13.438;2023-03-23T07:57:17;11.80;99.90
11474;DHT22;5793;52.238;13.438;2023-03-23T07:59:44;11.90;99.90
11474;DHT22;5793;52.238;13.438;2023-03-23T08:02:11;11.90;99.90
11474;DHT22;5793;52.238;13.438;2023-03-23T08:04:39;12.00;99.90
11474;DHT22;5793;52.238;13.438;2023-03-23T08:07:05;12.10;99.90
11474;DHT22;5793;52.238;13.438;2023-03-23T08:09:32;12.20;99.90
11474;DHT22;5793;52.238;13.438;2023-03-23T08:12:00;12.10;99.90
11474;DHT22;5793;52.238;13.438;2023-03-23T08:14:27;12.10;99.90
11474;DHT22;5793;52.238;13.438;2023-03-23T08:16:54;12.20;99.90
11474;DHT22;5793;52.238;13.438;2023-03-23T08:19:22;12.20;99.90
11474;DHT22;5793;52.238;13.438;2023-03-23T08:21:49;12.30;99.90
11474;DHT22;5793;52.238;13.438;2023-03-23T08:24:15;12.50;99.90
11474;DHT22;5793;52.238;13.438;2023-03-23T08:26:42;12.70;99.90
11474;DHT22;5793;52.238;13.438;2023-03-23T08:29:10;12.90;99.90
11474;DHT22;5793;52.238;13.438;2023-03-23T08:31:38;13.00;99.90
11474;DHT22;5793;52.238;13.438;2023-03-23T08:34:05;12.90;99.90
11474;DHT22;5793;52.238;13.438;2023-03-23T08:36:32;13.00;99.90
11474;DHT22;5793;52.238;13.438;2023-03-23T08:38:59;12.90;99.90
11474;DHT22;5793;52.238;13.438;2023-03-23T08:41:26;12.80;99.90
11474;DHT22;5793;52.238;13.438;2023-03-23T08:43:53;12.60;99.90
11474;DHT22;5793;52.238;13.438;2023-03-23T08:46:21;12.40;99.90
11474;DHT22;5793;52.238;13.438;2023-03-23T08:48:47;12.40;99.90
11474;DHT22;5793;52.238;13.438;2023-03-23T08:51:14;12.40;99.90
11474;DHT22;5793;52.238;13.438;2023-03-23T08:53:41;12.60;99.90
11474;DHT22;5793;52.238;13.438;2023-03-23T08:56:09;12.60;99.90
11474;DHT22;5793;52.238;13.438;2023-03-23T08:58:38;12.70;99.90
11474;DHT22;5793;52.238;13.438;2023-03-23T09:01:06;12.80;99.90
11474;DHT22;5793;52.238;13.438;2023-03-23T09:03:35;13.00;99.90
11474;DHT22;5793;52.238;13.438;2023-03-23T09:06:03;13.20;99.90
11474;DHT22;5793;52.238;13.438;2023-03-23T09:08:31;13.80;99.90
11474;DHT22;5793;52.238;13.438;2023-03-23T09:10:58;14.20;99.90
11474;DHT22;5793;52.238;13.438;2023-03-23T09:13:25;14.70;99.90
11474;DHT22;5793;52.238;13.438;2023-03-23T09:15:52;16.00;99.90
11474;DHT22;5793;52.238;13.438;2023-03-23T09:18:19;16.40;99.90
11474;DHT22;5793;52.238;13.438;2023-03-23T09:20:49;16.30;99.90
11474;DHT22;5793;52.238;13.438;2023-03-23T09:23:16;16.20;99.90
11474;DHT22;5793;52.238;13.438;2023-03-23T09:25:44;16.20;99.90
11474;DHT22;5793;52.238;13.438;2023-03-23T09:28:10;16.60;99.90
11474;DHT22;5793;52.238;13.438;2023-03-23T09:30:38;16.00;99.90
11474;DHT22;5793;52.238;13.438;2023-03-23T09:33:07;15.50;99.90
11474;DHT22;5793;52.238;13.438;2023-03-23T09:35:35;15.00;99.90
11474;DHT22;5793;52.238;13.438;2023-03-23T09:38:05;14.70;99.90
11474;DHT22;5793;52.238;13.438;2023-03-23T09:40:45;14.60;99.90
11474;DHT22;5793;52.238;13.438;2023-03-23T09:43:24;14.50;99.90
11474;DHT22;5793;52.238;13.438;2023-03-23T09:45:59;14.60;99.90
11474;DHT22;5793;52.238;13.438;2023-03-23T09:48:33;14.40;99.90
11474;DHT22;5793;52.238;13.438;2023-03-23T09:51:11;14.30;99.90
11474;DHT22;5793;52.238;13.438;2023-03-23T09:53:53;14.40;99.90
11474;DHT22;5793;52.238;13.438;2023-03-23T09:56:22;14.40;99.90
11474;DHT22;5793;52.238;13.438;2023-03-23T09:58:55;14.40;99.90
11474;DHT22;5793;52.238;13.438;2023-03-23T10:01:25;14.50;99.90
11474;DHT22;5793;52.238;13.438;2023-03-23T10:03:58;14.50;99.90
11474;DHT22;5793;52.238;13.438;2023-03-23T10:06:27;14.70;99.90
11474;DHT22;5793;52.238;13.438;2023-03-23T10:08:57;15.10;99.90
11474;DHT22;5793;52.238;13.438;2023-03-23T10:11:33;15.20;99.90
11474;DHT22;5793;52.238;13.438;2023-03-23T10:14:19;15.00;99.90
11474;DHT22;5793;52.238;13.438;2023-03-23T10:16:56;14.60;99.90
11474;DHT22;5793;52.238;13.438;2023-03-23T10:19:29;14.40;99.90
11474;DHT22;5793;52.238;13.438;2023-03-23T10:22:03;14.30;99.90
11474;DHT22;5793;52.238;13.438;2023-03-23T10:24:35;14.40;99.90
11474;DHT22;5793;52.238;13.438;2023-03-23T10:27:11;14.40;99.90
11474;DHT22;5793;52.238;13.438;2023-03-23T10:29:43;14.50;99.90
11474;DHT22;5793;52.238;13.438;2023-03-23T10:32:14;14.60;99.90
11474;DHT22;5793;52.238;13.438;2023-03-23T10:34:44;14.70;99.90
11474;DHT22;5793;52.238;13.438;2023-03-23T10:37:15;14.70;99.90
11474;DHT22;5793;52.238;13.438;2023-03-23T10:39:49;14.80;99.90
11474;DHT22;5793;52.238;13.438;2023-03-23T10:42:25;14.70;99.90
11474;DHT22;5793;52.238;13.438;2023-03-23T10:44:52;14.50;99.90
11474;DHT22;5793;52.238;13.438;2023-03-23T10:47:20;14.50;99.90
11474;DHT22;5793;52.238;13.438;2023-03-23T10:49:49;14.50;99.90
11474;DHT22;5793;52.238;13.438;2023-03-23T10:52:30;14.50;99.90
11474;DHT22;5793;52.238;13.438;2023-03-23T10:55:03;14.60;99.90
11474;DHT22;5793;52.238;13.438;2023-03-23T10:57:32;14.60;99.90
11474;DHT22;5793;52.238;13.438;2023-03-23T11:00:01;14.70;99.90
11474;DHT22;5793;52.238;13.438;2023-03-23T11:02:31;14.90;99.90
11474;DHT22;5793;52.238;13.438;2023-03-23T11:05:01;14.90;99.90
11474;DHT22;5793;52.238;13.438;2023-03-23T11:07:32;14.90;99.90
11474;DHT22;5793;52.238;13.438;2023-03-23T11:10:15;15.00;99.90
11474;DHT22;5793;52.238;13.438;2023-03-23T11:12:44;15.20;99.90
11474;DHT22;5793;52.238;13.438;2023-03-23T11:15:24;15.20;99.90
11474;DHT22;5793;52.238;13.438;2023-03-23T11:17:57;15.20;99.90
11474;DHT22;5793;52.238;13.438;2023-03-23T11:20:25;15.10;99.90
11474;DHT22;5793;52.238;13.438;2023-03-23T11:22:54;15.00;99.90
11474;DHT22;5793;52.238;13.438;2023-03-23T11:25:23;14.90;99.90
11474;DHT22;5793;52.238;13.438;2023-03-23T11:27:52;14.90;99.90
11474;DHT22;5793;52.238;13.438;2023-03-23T11:30:22;15.00;99.90
11474;DHT22;5793;52.238;13.438;2023-03-23T11:32:51;15.10;99.90
11474;DHT22;5793;52.238;13.438;2023-03-23T11:35:20;15.10;99.90
11474;DHT22;5793;52.238;13.438;2023-03-23T11:37:50;15.00;99.90
11474;DHT22;5793;52.238;13.438;2023-03-23T11:40:20;15.10;99.90
11474;DHT22;5793;52.238;13.438;2023-03-23T11:42:50;15.10;99.90
11474;DHT22;5793;52.238;13.438;2023-03-23T11:45:26;15.20;99.90
11474;DHT22;5793;52.238;13.438;2023-03-23T11:47:59;15.30;99.90
11474;DHT22;5793;52.238;13.438;2023-03-23T11:50:31;15.40;99.90
11474;DHT22;5793;52.238;13.438;2023-03-23T11:53:02;15.40;99.90
11474;DHT22;5793;52.238;13.438;2023-03-23T11:55:36;15.40;99.90
11474;DHT22;5793;52.238;13.438;2023-03-23T11:58:11;15.40;99.90
11474;DHT22;5793;52.238;13.438;2023-03-23T12:00:44;15.40;99.90
11474;DHT22;5793;52.238;13.438;2023-03-23T12:03:44;15.50;99.90
11474;DHT22;5793;52.238;13.438;2023-03-23T12:06:23;15.50;99.90
11474;DHT22;5793;52.238;13.438;2023-03-23T12:09:02;15.50;99.90
11474;DHT22;5793;52.238;13.438;2023-03-23T12:11:55;15.60;99.90
11474;DHT22;5793;52.238;13.438;2023-03-23T12:14:37;15.70;99.90
11474;DHT22;5793;52.238;13.438;2023-03-23T12:17:16;15.80;99.90
11474;DHT22;5793;52.238;13.438;2023-03-23T12:19:50;16.00;99.90
11474;DHT22;5793;52.238;13.438;2023-03-23T12:22:31;16.20;99.90
11474;DHT22;5793;52.238;13.438;2023-03-23T12:25:13;16.20;99.90
11474;DHT22;5793;52.238;13.438;2023-03-23T12:27:47;16.30;99.90
11474;DHT22;5793;52.238;13.438;2023-03-23T12:30:27;16.50;99.90
11474;DHT22;5793;52.238;13.438;2023-03-23T12:33:10;16.40;99.90
11474;DHT22;5793;52.238;13.438;2023-03-23T12:35:49;16.40;99.90
11474;DHT22;5793;52.238;13.438;2023-03-23T12:38:34;16.40;99.90
11474;DHT22;5793;52.238;13.438;2023-03-23T12:41:15;16.30;99.90
11474;DHT22;5793;52.238;13.438;2023-03-23T12:43:48;16.30;99.90
11474;DHT22;5793;52.238;13.438;2023-03-23T12:46:33;16.30;99.90
11474;DHT22;5793;52.238;13.438;2023-03-23T12:49:05;16.20;99.90
11474;DHT22;5793;52.238;13.438;2023-03-23T12:51:37;16.20;99.90
11474;DHT22;5793;52.238;13.438;2023-03-23T12:54:12;16.30;99.90
11474;DHT22;5793;52.238;13.438;2023-03-23T12:56:46;16.20;99.90
11474;DHT22;5793;52.238;13.438;2023-03-23T12:59:20;16.10;99.90
11474;DHT22;5793;52.238;13.438;2023-03-23T13:01:54;16.10;99.90
11474;DHT22;5793;52.238;13.438;2023-03-23T13:04:26;16.20;99.90
11474;DHT22;5793;52.238;13.438;2023-03-23T13:06:54;16.20;99.90
11474;DHT22;5793;52.238;13.438;2023-03-23T13:09:27;16.20;99.90
11474;DHT22;5793;52.238;13.438;2023-03-23T13:11:57;16.20;99.90
11474;DHT22;5793;52.238;13.438;2023-03-23T13:14:34;16.20;99.90
11474;DHT22;5793;52.238;13.438;2023-03-23T13:17:13;16.50;99.90
11474;DHT22;5793;52.238;13.438;2023-03-23T13:19:59;16.50;99.90
11474;DHT22;5793;52.238;13.438;2023-03-23T13:22:35;16.50;99.90
11474;DHT22;5793;52.238;13.438;2023-03-23T13:25:07;16.70;99.90
11474;DHT22;5793;52.238;13.438;2023-03-23T13:27:35;16.90;99.90
11474;DHT22;5793;52.238;13.438;2023-03-23T13:30:02;16.90;99.90
11474;DHT22;5793;52.238;13.438;2023-03-23T13:32:34;16.80;99.90
11474;DHT22;5793;52.238;13.438;2023-03-23T13:35:02;16.90;99.90
11474;DHT22;5793;52.238;13.438;2023-03-23T13:37:31;16.60;99.90
11474;DHT22;5793;52.238;13.438;2023-03-23T13:40:19;16.50;99.90
11474;DHT22;5793;52.238;13.438;2023-03-23T13:42:51;16.30;99.90
11474;DHT22;5793;52.238;13.438;2023-03-23T13:45:22;16.20;99.90
11474;DHT22;5793;52.238;13.438;2023-03-23T13:48:03;16.10;99.90
11474;DHT22;5793;52.238;13.438;2023-03-23T13:50:30;16.30;99.90
11474;DHT22;5793;52.238;13.438;2023-03-23T13:52:59;16.30;99.90
11474;DHT22;5793;52.238;13.438;2023-03-23T13:55:39;16.40;99.90
11474;DHT22;5793;52.238;13.438;2023-03-23T13:58:20;16.40;99.90
11474;DHT22;5793;52.238;13.438;2023-03-23T14:00:49;16.80;99.90
11474;DHT22;5793;52.238;13.438;2023-03-23T14:03:24;16.80;99.90
11474;DHT22;5793;52.238;13.438;2023-03-23T14:06:02;16.60;99.90
11474;DHT22;5793;52.238;13.438;2023-03-23T14:08:39;16.40;99.90
11474;DHT22;5793;52.238;13.438;2023-03-23T14:11:12;16.30;99.90
11474;DHT22;5793;52.238;13.438;2023-03-23T14:13:44;16.40;99.90
11474;DHT22;5793;52.238;13.438;2023-03-23T14:16:17;16.40;99.90
11474;DHT22;5793;52.238;13.438;2023-03-23T14:18:53;16.30;99.90
11474;DHT22;5793;52.238;13.438;2023-03-23T14:21:32;16.20;99.90
11474;DHT22;5793;52.238;13.438;2023-03-23T14:24:01;16.10;99.90
11474;DHT22;5793;52.238;13.438;2023-03-23T14:26:28;16.20;99.90
11474;DHT22;5793;52.238;13.438;2023-03-23T14:28:55;16.40;99.90
11474;DHT22;5793;52.238;13.438;2023-03-23T14:31:23;16.20;99.90
11474;DHT22;5793;52.238;13.438;2023-03-23T14:33:54;16.00;99.90
11474;DHT22;5793;52.238;13.438;2023-03-23T14:36:22;15.90;99.90
11474;DHT22;5793;52.238;13.438;2023-03-23T14:38:56;15.80;99.90
11474;DHT22;5793;52.238;13.438;2023-03-23T14:41:28;15.70;99.90
11474;DHT22;5793;52.238;13.438;2023-03-23T14:43:55;15.60;99.90
11474;DHT22;5793;52.238;13.438;2023-03-23T14:46:24;15.40;99.90
11474;DHT22;5793;52.238;13.438;2023-03-23T14:48:52;15.40;99.90
11474;DHT22;5793;52.238;13.438;2023-03-23T14:51:20;15.50;99.90
11474;DHT22;5793;52.238;13.438;2023-03-23T14:53:47;15.60;99.90
11474;DHT22;5793;52.238;13.438;2023-03-23T14:56:17;15.90;99.90
11474;DHT22;5793;52.238;13.438;2023-03-23T14:58:45;16.30;99.90
11474;DHT22;5793;52.238;13.438;2023-03-23T15:01:15;16.60;99.90
11474;DHT22;5793;52.238;13.438;2023-03-23T15:03:52;16.70;99.90
11474;DHT22;5793;52.238;13.438;2023-03-23T15:06:21;16.40;99.90
11474;DHT22;5793;52.238;13.438;2023-03-23T15:08:53;16.20;99.90
11474;DHT22;5793;52.238;13.438;2023-03-23T15:11:23;15.90;99.90
11474;DHT22;5793;52.238;13.438;2023-03-23T15:13:53;15.80;99.90
11474;DHT22;5793;52.238;13.438;2023-03-23T15:16:23;15.80;99.90
11474;DHT22;5793;52.238;13.438;2023-03-23T15:18:54;15.80;99.90
11474;DHT22;5793;52.238;13.438;2023-03-23T15:21:26;15.90;99.90
11474;DHT22;5793;52.238;13.438;2023-03-23T15:23:53;15.90;99.90
11474;DHT22;5793;52.238;13.438;2023-03-23T15:26:29;15.90;99.90
11474;DHT22;5793;52.238;13.438;2023-03-23T15:29:11;15.90;99.90
11474;DHT22;5793;52.238;13.438;2023-03-23T15:31:40;15.90;99.90
11474;DHT22;5793;52.238;13.438;2023-03-23T15:34:16;15.90;99.90
11474;DHT22;5793;52.238;13.438;2023-03-23T15:36:43;16.00;99.90
11474;DHT22;5793;52.238;13.438;2023-03-23T15:39:12;16.10;99.90
11474;DHT22;5793;52.238;13.438;2023-03-23T15:41:46;16.00;99.90
11474;DHT22;5793;52.238;13.438;2023-03-23T15:44:21;15.90;99.90
11474;DHT22;5793;52.238;13.438;2023-03-23T15:46:49;15.90;99.90
11474;DHT22;5793;52.238;13.438;2023-03-23T15:49:18;15.90;99.90
11474;DHT22;5793;52.238;13.438;2023-03-23T15:51:45;15.90;99.90
11474;DHT22;5793;52.238;13.438;2023-03-23T15:54:14;15.80;99.90
11474;DHT22;5793;52.238;13.438;2023-03-23T15:56:42;15.70;99.90